Time;durP1;ratioP1;P1;durP2;ratioP2;P2;SDS_P1;SDS_P2;PMS_P1;PMS_P2;Temp;Humidity;BMP_temperature;BMP_pressure;BME280_temperature;BME280_humidity;BME280_pressure;Samples;Min_cycle;Max_cycle;Signal;HPM_P1;HPM_P2
2022/01/08 00:00:27;;;;;;;7.97;3.80;;;4.50;99.90;;;;;;4930947;29;20104;-91
2022/01/08 00:02:53;;;;;;;9.60;3.90;;;4.50;99.90;;;;;;4930852;29;20091;-91
2022/01/08 00:05:19;;;;;;;8.93;4.00;;;4.50;99.90;;;;;;4915114;29;20024;-91
2022/01/08 00:07:45;;;;;;;8.73;4.07;;;4.50;99.90;;;;;;4930447;29;20063;-91
2022/01/08 00:10:11;;;;;;;8.93;4.30;;;4.50;99.90;;;;;;4914822;29;20098;-91
2022/01/08 00:12:38;;;;;;;8.13;4.10;;;4.50;99.90;;;;;;4930873;29;20496;-88
2022/01/08 00:15:06;;;;;;;8.13;3.80;;;4.50;99.90;;;;;;4930184;29;20071;-89
2022/01/08 00:17:32;;;;;;;8.47;4.07;;;4.50;99.90;;;;;;4930470;29;20122;-89
2022/01/08 00:19:58;;;;;;;7.73;3.83;;;4.50;99.90;;;;;;4930400;29;20028;-89
2022/01/08 00:22:24;;;;;;;8.67;4.10;;;4.50;99.90;;;;;;4930483;29;20111;-88
2022/01/08 00:24:52;;;;;;;12.60;4.30;;;4.50;99.90;;;;;;4914738;29;20044;-90
2022/01/08 00:27:23;;;;;;;8.23;3.97;;;4.50;99.90;;;;;;4914877;29;20036;-91
2022/01/08 00:29:49;;;;;;;9.33;4.93;;;4.50;99.90;;;;;;4930038;29;20499;-91
2022/01/08 00:32:16;;;;;;;8.27;4.47;;;4.50;99.90;;;;;;4930648;29;20399;-92
2022/01/08 00:34:42;;;;;;;13.13;4.53;;;4.40;99.90;;;;;;4930496;29;20502;-91
2022/01/08 00:37:08;;;;;;;12.77;4.50;;;4.40;99.90;;;;;;4930357;29;20033;-91
2022/01/08 00:39:35;;;;;;;12.70;4.70;;;4.40;99.90;;;;;;4929776;29;20031;-91
2022/01/08 00:42:01;;;;;;;9.83;4.80;;;4.40;99.90;;;;;;4930711;29;20036;-89
2022/01/08 00:44:26;;;;;;;11.43;5.37;;;4.40;99.90;;;;;;4930534;29;20038;-91
2022/01/08 00:46:52;;;;;;;12.33;5.40;;;4.40;99.90;;;;;;4930690;29;20539;-91
2022/01/08 00:49:18;;;;;;;12.77;6.20;;;4.30;99.90;;;;;;4929777;29;20152;-91
2022/01/08 00:51:44;;;;;;;12.07;5.30;;;4.40;99.90;;;;;;4914523;29;20063;-91
2022/01/08 00:54:09;;;;;;;12.20;5.20;;;4.40;99.90;;;;;;4930285;29;20032;-88
2022/01/08 00:56:35;;;;;;;10.10;5.73;;;4.30;99.90;;;;;;4930427;29;20047;-91
2022/01/08 00:59:03;;;;;;;12.97;6.13;;;4.30;99.90;;;;;;4929778;29;20450;-92
2022/01/08 01:01:29;;;;;;;12.83;5.80;;;4.40;99.90;;;;;;4930143;29;20036;-91
2022/01/08 01:03:55;;;;;;;12.50;5.60;;;4.40;99.90;;;;;;4930311;29;20040;-91
2022/01/08 01:06:21;;;;;;;12.07;5.80;;;4.40;99.90;;;;;;4930334;29;20044;-91
2022/01/08 01:08:46;;;;;;;11.43;5.67;;;4.40;99.90;;;;;;4929838;29;20032;-91
2022/01/08 01:11:12;;;;;;;10.33;5.73;;;4.40;99.90;;;;;;4930181;29;20385;-91
2022/01/08 01:13:38;;;;;;;11.47;5.77;;;4.30;99.90;;;;;;4914461;29;20384;-92
2022/01/08 01:16:04;;;;;;;11.13;5.90;;;4.30;99.90;;;;;;4930269;29;20024;-91
2022/01/08 01:18:30;;;;;;;10.40;5.23;;;4.30;99.90;;;;;;4929793;29;20119;-91
2022/01/08 01:20:57;;;;;;;11.00;5.70;;;4.30;99.90;;;;;;4929874;29;20115;-91
2022/01/08 01:23:30;;;;;;;12.97;5.53;;;4.20;99.90;;;;;;4930166;29;20028;-91
2022/01/08 01:26:00;;;;;;;9.77;5.47;;;4.10;99.90;;;;;;4916003;29;20040;-91
2022/01/08 01:28:38;;;;;;;11.90;5.57;;;4.10;99.90;;;;;;4933279;29;20036;-91
2022/01/08 01:47:02;;;;;;;7.53;4.63;;;4.00;99.90;;;;;;4933419;29;20036;-91
2022/01/08 01:49:36;;;;;;;10.17;4.67;;;4.00;99.90;;;;;;4916960;29;20043;-91
2022/01/08 01:52:04;;;;;;;12.27;5.03;;;4.00;99.90;;;;;;4933523;29;20039;-91
2022/01/08 01:54:30;;;;;;;12.50;4.97;;;4.00;99.90;;;;;;4933271;29;20036;-89
2022/01/08 01:57:00;;;;;;;11.57;5.40;;;4.00;99.90;;;;;;4933190;29;20039;-90
2022/01/08 01:59:29;;;;;;;11.93;5.40;;;3.90;99.90;;;;;;4932652;29;20039;-91
2022/01/08 02:01:55;;;;;;;10.87;4.83;;;3.90;99.90;;;;;;4932891;29;20048;-91
2022/01/08 02:04:21;;;;;;;10.97;5.23;;;3.80;99.90;;;;;;4933060;29;20123;-91
2022/01/08 02:06:47;;;;;;;12.47;5.10;;;3.70;99.90;;;;;;4933059;29;20522;-91
2022/01/08 02:09:13;;;;;;;12.73;5.67;;;3.60;99.90;;;;;;4932430;29;20402;-91
2022/01/08 02:12:03;;;;;;;12.77;5.83;;;3.50;99.90;;;;;;4932815;29;20131;-91
2022/01/08 02:14:32;;;;;;;11.20;5.17;;;3.40;99.90;;;;;;4932823;29;20043;-91
2022/01/08 02:16:57;;;;;;;12.00;5.50;;;3.40;99.90;;;;;;4932935;29;20055;-88
2022/01/08 02:19:24;;;;;;;12.63;6.90;;;3.40;99.90;;;;;;4932538;29;20063;-88
2022/01/08 02:21:55;;;;;;;11.47;5.70;;;3.30;99.90;;;;;;4932541;29;20032;-91
2022/01/08 02:24:22;;;;;;;11.60;6.03;;;3.20;99.90;;;;;;4932736;29;20056;-91
2022/01/08 02:26:48;;;;;;;14.00;6.23;;;3.30;99.90;;;;;;4932589;29;20034;-91
2022/01/08 02:29:16;;;;;;;12.63;5.80;;;3.30;99.90;;;;;;4932058;29;20130;-88
2022/01/08 02:32:07;;;;;;;10.17;5.40;;;3.30;99.90;;;;;;4916499;29;20128;-88
2022/01/08 02:34:33;;;;;;;12.83;5.30;;;3.10;99.90;;;;;;4932659;29;20372;-91
2022/01/08 02:37:00;;;;;;;11.33;5.50;;;3.00;99.90;;;;;;4932183;29;20059;-91
2022/01/08 02:39:26;;;;;;;11.60;5.43;;;3.00;99.90;;;;;;4931797;29;20028;-91
2022/01/08 02:41:56;;;;;;;10.27;5.20;;;2.90;99.90;;;;;;4932204;29;20435;-91
2022/01/08 02:44:23;;;;;;;11.13;5.70;;;2.90;99.90;;;;;;4932571;29;20043;-91
2022/01/08 02:46:49;;;;;;;11.67;5.23;;;2.90;99.90;;;;;;4932482;29;20507;-91
2022/01/08 02:49:15;;;;;;;13.90;5.80;;;2.90;99.90;;;;;;4915942;29;20335;-91
2022/01/08 02:51:41;;;;;;;12.97;5.57;;;2.90;99.90;;;;;;4932304;29;20047;-88
2022/01/08 02:54:09;;;;;;;15.13;5.70;;;2.90;99.90;;;;;;4917587;29;20114;-88
2022/01/08 02:56:43;;;;;;;12.80;6.13;;;2.90;99.90;;;;;;4932049;29;20036;-91
2022/01/08 02:59:09;;;;;;;12.03;5.80;;;2.80;99.90;;;;;;4915841;29;20032;-91
2022/01/08 03:01:35;;;;;;;9.70;5.30;;;2.80;99.90;;;;;;4931834;29;20102;-91
2022/01/08 03:04:02;;;;;;;13.87;5.90;;;2.80;99.90;;;;;;4932023;29;20035;-91
2022/01/08 03:06:28;;;;;;;11.13;6.00;;;2.80;99.90;;;;;;4931936;29;20040;-91
2022/01/08 03:08:54;;;;;;;11.53;5.77;;;2.80;99.90;;;;;;4915574;29;20032;-91
2022/01/08 03:11:20;;;;;;;12.93;6.07;;;2.80;99.90;;;;;;4931703;29;20606;-91
2022/01/08 03:13:45;;;;;;;13.67;6.93;;;2.80;99.90;;;;;;4915958;29;20040;-91
2022/01/08 03:16:11;;;;;;;12.07;6.33;;;2.80;99.90;;;;;;4931717;29;20032;-91
2022/01/08 03:18:37;;;;;;;15.20;6.30;;;2.90;99.90;;;;;;4931127;29;20030;-91
2022/01/08 03:21:18;;;;;;;17.03;7.27;;;2.90;99.90;;;;;;4931675;29;20044;-91
2022/01/08 03:23:50;;;;;;;12.40;6.30;;;2.90;99.90;;;;;;4915862;29;20099;-91
2022/01/08 03:26:17;;;;;;;15.00;6.90;;;2.80;99.90;;;;;;4931603;29;20127;-91
2022/01/08 03:28:44;;;;;;;13.83;6.57;;;2.80;99.90;;;;;;4931000;29;20380;-91
2022/01/08 03:31:11;;;;;;;13.93;6.27;;;2.80;99.90;;;;;;4931412;29;20258;-91
2022/01/08 03:33:37;;;;;;;11.50;6.40;;;2.80;99.90;;;;;;4931603;29;20483;-91
2022/01/08 03:36:04;;;;;;;10.87;6.30;;;2.70;99.90;;;;;;4915563;29;20495;-90
2022/01/08 03:38:30;;;;;;;14.13;7.50;;;2.80;99.90;;;;;;4930670;29;20091;-91
2022/01/08 03:40:56;;;;;;;13.90;7.53;;;2.80;99.90;;;;;;4931186;29;20032;-91
2022/01/08 03:43:22;;;;;;;14.57;8.40;;;2.90;99.90;;;;;;4931369;29;20039;-89
2022/01/08 03:45:48;;;;;;;18.13;8.33;;;2.90;99.90;;;;;;4931414;29;20036;-91
2022/01/08 03:48:32;;;;;;;18.13;8.67;;;3.00;99.90;;;;;;4930649;29;20036;-91
2022/01/08 03:50:59;;;;;;;16.60;8.83;;;3.10;99.90;;;;;;4930916;29;20062;-88
2022/01/08 03:53:26;;;;;;;17.30;7.97;;;3.10;99.90;;;;;;4931030;29;20472;-91
2022/01/08 03:55:52;;;;;;;18.27;8.43;;;3.20;99.90;;;;;;4915161;29;20122;-91
2022/01/08 03:58:18;;;;;;;22.07;9.13;;;3.20;99.90;;;;;;4930565;29;20063;-91
2022/01/08 04:00:46;;;;;;;18.40;8.40;;;3.20;99.90;;;;;;4930833;29;20035;-91
2022/01/08 04:03:11;;;;;;;16.37;8.80;;;3.30;99.90;;;;;;4931079;29;20036;-91
2022/01/08 04:05:37;;;;;;;20.20;9.17;;;3.30;99.90;;;;;;4930956;29;20155;-91
2022/01/08 04:08:03;;;;;;;17.47;9.30;;;3.30;99.90;;;;;;4930602;29;20487;-91
2022/01/08 04:10:29;;;;;;;17.63;9.20;;;3.30;99.90;;;;;;4930752;29;20490;-91
2022/01/08 04:12:58;;;;;;;21.23;9.77;;;3.30;99.90;;;;;;4930754;29;20063;-91
2022/01/08 04:17:52;;;;;;;17.97;9.03;;;3.30;99.90;;;;;;4916152;29;20024;-91
2022/01/08 04:20:19;;;;;;;19.27;9.70;;;3.30;99.90;;;;;;4930323;29;20415;-91
2022/01/08 04:22:48;;;;;;;16.37;8.83;;;3.30;99.90;;;;;;4930647;29;20506;-91
2022/01/08 04:25:15;;;;;;;16.52;8.65;;;3.30;99.90;;;;;;4930682;29;20682;-91
2022/01/08 04:27:41;;;;;;;15.57;8.70;;;3.30;99.90;;;;;;4930169;29;20076;-91
2022/01/08 04:30:07;;;;;;;18.30;9.00;;;3.30;99.90;;;;;;4930355;29;20040;-91
2022/01/08 04:32:32;;;;;;;19.43;9.27;;;3.30;99.90;;;;;;4914744;29;20406;-91
2022/01/08 04:34:58;;;;;;;17.37;9.23;;;3.30;99.90;;;;;;4930433;29;20123;-91
2022/01/08 04:37:24;;;;;;;18.37;9.27;;;3.20;99.90;;;;;;4930682;29;20032;-91
2022/01/08 04:39:50;;;;;;;16.70;8.90;;;3.30;99.90;;;;;;4930078;29;20409;-91
2022/01/08 04:42:16;;;;;;;19.90;9.70;;;3.30;99.90;;;;;;4930512;29;20443;-91
2022/01/08 04:44:42;;;;;;;15.97;8.90;;;3.30;99.90;;;;;;4930482;29;20071;-91
2022/01/08 04:47:08;;;;;;;14.47;8.87;;;3.30;99.90;;;;;;4915772;29;20048;-91
2022/01/08 04:49:33;;;;;;;17.63;9.33;;;3.30;99.90;;;;;;4929810;29;20039;-91
2022/01/08 04:51:59;;;;;;;17.73;8.80;;;3.30;99.90;;;;;;4930522;29;20546;-91
2022/01/08 04:54:25;;;;;;;18.83;9.43;;;3.30;99.90;;;;;;4930329;29;20059;-91
2022/01/08 04:56:51;;;;;;;17.70;9.47;;;3.20;99.90;;;;;;4930317;29;20078;-91
2022/01/08 04:59:16;;;;;;;16.20;9.10;;;3.20;99.90;;;;;;4929987;29;20087;-91
2022/01/08 05:01:43;;;;;;;20.50;9.00;;;3.20;99.90;;;;;;4933431;29;20039;-91
2022/01/08 05:04:09;;;;;;;16.53;8.87;;;3.20;99.90;;;;;;4934187;29;20082;-91
2022/01/08 05:06:35;;;;;;;17.63;9.67;;;3.20;99.90;;;;;;4934261;29;20040;-91
2022/01/08 05:09:01;;;;;;;19.03;9.63;;;3.20;99.90;;;;;;4933525;29;20611;-91
2022/01/08 05:11:27;;;;;;;19.27;8.77;;;3.20;99.90;;;;;;4933952;29;20035;-91
2022/01/08 05:13:54;;;;;;;16.93;9.43;;;3.20;99.90;;;;;;4934018;29;20071;-91
2022/01/08 05:16:24;;;;;;;19.70;9.67;;;3.20;99.90;;;;;;4933861;29;20048;-91
2022/01/08 05:18:53;;;;;;;17.33;9.43;;;3.20;99.90;;;;;;4933430;29;20032;-91
2022/01/08 05:23:47;;;;;;;26.93;10.73;;;3.20;99.90;;;;;;4919245;29;20526;-91
2022/01/08 05:26:13;;;;;;;22.90;10.03;;;3.20;99.90;;;;;;4933883;29;20304;-91
2022/01/08 05:28:39;;;;;;;21.80;10.20;;;3.20;99.90;;;;;;4933736;29;20427;-91
2022/01/08 05:31:05;;;;;;;21.60;9.53;;;3.20;99.90;;;;;;4933749;29;20032;-91
2022/01/08 05:33:30;;;;;;;16.70;9.37;;;3.20;99.90;;;;;;4933633;29;20040;-91
2022/01/08 05:35:56;;;;;;;23.97;9.47;;;3.30;99.90;;;;;;4933843;29;20110;-90
2022/01/08 05:38:22;;;;;;;19.37;9.17;;;3.20;99.90;;;;;;4933560;29;20032;-90
2022/01/08 05:40:48;;;;;;;19.33;8.83;;;3.20;99.90;;;;;;4933420;29;20025;-91
2022/01/08 05:43:14;;;;;;;16.30;8.30;;;3.20;99.90;;;;;;4933680;29;20033;-90
2022/01/08 05:45:39;;;;;;;20.87;9.47;;;3.30;99.90;;;;;;4933568;29;20039;-90
2022/01/08 05:48:06;;;;;;;20.53;10.07;;;3.20;99.90;;;;;;4933463;29;20487;-91
2022/01/08 05:50:32;;;;;;;21.83;10.77;;;3.20;99.90;;;;;;4933303;29;20032;-91
2022/01/08 05:52:57;;;;;;;23.33;10.83;;;3.10;99.90;;;;;;4933532;29;20032;-91
2022/01/08 05:55:23;;;;;;;20.20;11.40;;;3.00;99.90;;;;;;4933328;29;20076;-90
2022/01/08 05:57:49;;;;;;;19.93;11.40;;;2.90;99.90;;;;;;4933281;29;20107;-87
2022/01/08 06:00:15;;;;;;;19.93;11.13;;;2.80;99.90;;;;;;4933326;29;20718;-89
2022/01/08 06:02:40;;;;;;;25.90;10.97;;;2.70;99.90;;;;;;4933064;29;20123;-89
2022/01/08 06:05:07;;;;;;;19.00;9.70;;;2.70;99.90;;;;;;4917363;29;20036;-91
2022/01/08 06:07:34;;;;;;;23.93;11.03;;;2.60;99.90;;;;;;4933068;29;20071;-90
2022/01/08 06:09:59;;;;;;;19.37;10.10;;;2.60;99.90;;;;;;4932988;29;20036;-90
2022/01/08 06:12:25;;;;;;;23.00;11.40;;;2.60;99.90;;;;;;4932012;29;20036;-90
2022/01/08 06:14:51;;;;;;;19.87;10.07;;;2.50;99.90;;;;;;4932894;29;20059;-90
2022/01/08 06:17:17;;;;;;;21.57;11.00;;;2.50;99.90;;;;;;4932891;29;20032;-91
2022/01/08 06:19:42;;;;;;;19.23;10.13;;;2.50;99.90;;;;;;4932768;29;20036;-90
2022/01/08 06:22:08;;;;;;;25.00;12.73;;;2.40;99.90;;;;;;4932823;29;20091;-90
2022/01/08 06:24:34;;;;;;;23.67;9.80;;;2.40;99.90;;;;;;4933060;29;20051;-88
2022/01/08 06:27:00;;;;;;;18.23;10.10;;;2.50;99.90;;;;;;4932703;29;20032;-88
2022/01/08 06:29:26;;;;;;;18.83;10.10;;;2.50;99.90;;;;;;4916678;29;20496;-91
2022/01/08 06:31:53;;;;;;;17.57;8.97;;;2.50;99.90;;;;;;4933495;29;20036;-90
2022/01/08 06:34:19;;;;;;;22.10;9.73;;;2.50;99.90;;;;;;4934085;29;20040;-91
2022/01/08 06:36:47;;;;;;;19.67;9.60;;;2.50;99.90;;;;;;4933308;29;20078;-91
2022/01/08 06:39:14;;;;;;;20.57;9.37;;;2.60;99.90;;;;;;4932410;29;20028;-91
2022/01/08 06:41:40;;;;;;;18.30;8.90;;;2.70;99.90;;;;;;4932438;29;20036;-91
2022/01/08 06:44:06;;;;;;;17.03;9.07;;;2.70;99.90;;;;;;4932445;29;20032;-91
2022/01/08 06:46:32;;;;;;;18.80;9.97;;;2.70;99.90;;;;;;4932559;29;20131;-91
2022/01/08 06:48:58;;;;;;;19.70;9.70;;;2.70;99.90;;;;;;4932325;29;20035;-88
2022/01/08 06:51:24;;;;;;;20.40;9.77;;;2.80;99.90;;;;;;4932417;29;20028;-91
2022/01/08 06:53:50;;;;;;;20.37;9.30;;;2.80;99.90;;;;;;4932180;29;20083;-91
2022/01/08 06:56:18;;;;;;;19.40;9.20;;;2.90;99.90;;;;;;4932108;29;20084;-90
2022/01/08 06:58:44;;;;;;;17.33;9.00;;;2.90;99.90;;;;;;4932049;29;20032;-90
2022/01/08 07:01:10;;;;;;;20.93;8.83;;;3.00;99.90;;;;;;4932322;29;20249;-91
2022/01/08 07:03:35;;;;;;;17.20;8.57;;;3.00;99.90;;;;;;4932089;29;20032;-90
2022/01/08 07:06:01;;;;;;;18.00;9.37;;;3.00;99.90;;;;;;4932114;29;20047;-91
2022/01/08 07:08:27;;;;;;;20.20;9.63;;;3.00;99.90;;;;;;4931940;29;20046;-91
2022/01/08 07:10:53;;;;;;;21.17;9.80;;;3.00;99.90;;;;;;4931996;29;20035;-91
2022/01/08 07:13:18;;;;;;;20.13;10.13;;;3.10;99.90;;;;;;4931934;29;20032;-91
2022/01/08 07:15:44;;;;;;;19.83;9.43;;;3.10;99.90;;;;;;4931943;29;20028;-91
2022/01/08 07:18:10;;;;;;;16.90;8.60;;;3.10;99.90;;;;;;4915868;29;20032;-91
2022/01/08 07:20:36;;;;;;;17.53;9.37;;;3.00;99.90;;;;;;4931670;29;20083;-91
2022/01/08 07:23:02;;;;;;;19.40;8.70;;;3.00;99.90;;;;;;4931703;29;20076;-90
2022/01/08 07:25:27;;;;;;;20.20;9.17;;;3.00;99.90;;;;;;4931516;29;20103;-90
2022/01/08 07:27:53;;;;;;;21.83;8.70;;;3.00;99.90;;;;;;4915749;29;20038;-90
2022/01/08 07:30:20;;;;;;;17.67;8.43;;;2.90;99.90;;;;;;4915755;29;20404;-91
2022/01/08 07:32:48;;;;;;;20.03;9.07;;;3.00;99.90;;;;;;4931471;29;20040;-91
2022/01/08 07:35:16;;;;;;;20.37;9.40;;;2.90;99.90;;;;;;4931674;29;20056;-91
2022/01/08 07:37:43;;;;;;;20.33;9.13;;;2.90;99.90;;;;;;4931850;29;20036;-90
2022/01/08 07:40:10;;;;;;;20.77;9.83;;;3.00;99.90;;;;;;4931431;29;20036;-91
2022/01/08 07:42:36;;;;;;;20.27;9.33;;;2.90;99.90;;;;;;4931380;29;20036;-90
2022/01/08 07:45:03;;;;;;;23.23;10.60;;;3.00;99.90;;;;;;4931067;29;20032;-91
2022/01/08 07:47:29;;;;;;;20.87;10.37;;;2.90;99.90;;;;;;4931304;29;20069;-91
2022/01/08 07:49:55;;;;;;;24.00;10.50;;;2.90;99.90;;;;;;4915339;29;20064;-91
2022/01/08 07:52:21;;;;;;;21.30;10.27;;;3.00;99.90;;;;;;4915353;29;20566;-91
2022/01/08 07:54:46;;;;;;;25.40;11.27;;;2.90;99.90;;;;;;4931241;29;20035;-91
2022/01/08 07:57:12;;;;;;;22.23;10.63;;;2.90;99.90;;;;;;4915270;29;20399;-88
2022/01/08 07:59:38;;;;;;;26.27;10.83;;;2.90;99.90;;;;;;4930953;29;20080;-88
2022/01/08 08:02:04;;;;;;;30.07;11.17;;;2.90;99.90;;;;;;4915105;29;20039;-91
2022/01/08 08:04:30;;;;;;;22.83;11.20;;;2.90;99.90;;;;;;4931006;29;20042;-91
2022/01/08 08:06:55;;;;;;;20.57;10.93;;;3.00;99.90;;;;;;4931104;29;20068;-90
2022/01/08 08:09:21;;;;;;;22.70;10.70;;;3.00;99.90;;;;;;4931046;29;20398;-90
2022/01/08 08:11:47;;;;;;;22.73;11.10;;;2.90;99.90;;;;;;4931103;29;20403;-91
2022/01/08 08:14:13;;;;;;;21.00;10.70;;;3.00;99.90;;;;;;4930740;29;20059;-92
2022/01/08 08:16:38;;;;;;;22.20;10.37;;;3.10;99.90;;;;;;4930896;29;20133;-90
2022/01/08 08:19:04;;;;;;;21.57;10.80;;;3.10;99.90;;;;;;4914863;29;20028;-91
2022/01/08 08:21:31;;;;;;;21.97;10.87;;;3.10;99.90;;;;;;4914881;29;20028;-90
2022/01/08 08:23:57;;;;;;;22.73;10.90;;;3.10;99.90;;;;;;4930803;29;20107;-90
2022/01/08 08:26:23;;;;;;;23.03;11.20;;;3.10;99.90;;;;;;4930892;29;20494;-91
2022/01/08 08:28:48;;;;;;;22.70;12.30;;;3.10;99.90;;;;;;4914981;29;20074;-91
2022/01/08 08:31:14;;;;;;;26.73;13.90;;;3.20;99.90;;;;;;4930727;29;20087;-91
2022/01/08 08:33:40;;;;;;;27.97;15.63;;;3.20;99.90;;;;;;4915051;29;20039;-92
2022/01/08 08:36:06;;;;;;;34.33;15.57;;;3.10;99.90;;;;;;4930221;29;20423;-90
2022/01/08 08:38:32;;;;;;;30.10;15.33;;;3.20;99.90;;;;;;4930525;29;20028;-91
2022/01/08 08:40:58;;;;;;;33.97;15.60;;;3.20;99.90;;;;;;4930827;29;20423;-91
2022/01/08 08:43:24;;;;;;;33.13;15.80;;;3.20;99.90;;;;;;4930482;29;20054;-92
2022/01/08 08:45:50;;;;;;;32.43;16.00;;;3.20;99.90;;;;;;4914834;29;20566;-91
2022/01/08 08:48:16;;;;;;;33.17;16.33;;;3.20;99.90;;;;;;4930858;29;20543;-90
2022/01/08 08:50:44;;;;;;;29.57;14.70;;;3.20;99.90;;;;;;4915056;29;20068;-92
2022/01/08 08:53:10;;;;;;;37.20;18.60;;;3.20;99.90;;;;;;4915031;29;20091;-91
2022/01/08 08:55:36;;;;;;;32.77;15.07;;;3.30;99.90;;;;;;4914678;29;20102;-90
2022/01/08 08:58:02;;;;;;;25.47;12.70;;;3.30;99.90;;;;;;4930783;29;20464;-90
2022/01/08 09:00:28;;;;;;;24.77;13.30;;;3.30;99.90;;;;;;4930488;29;20032;-90
2022/01/08 09:02:54;;;;;;;24.07;12.43;;;3.30;99.90;;;;;;4930642;29;20028;-90
2022/01/08 09:05:20;;;;;;;24.87;13.07;;;3.30;99.90;;;;;;4930518;29;20392;-90
2022/01/08 09:07:46;;;;;;;25.87;12.53;;;3.30;99.90;;;;;;4914610;29;20032;-90
2022/01/08 09:10:13;;;;;;;21.80;11.73;;;3.40;99.90;;;;;;4931281;29;20514;-90
2022/01/08 09:12:40;;;;;;;22.97;11.97;;;3.40;99.90;;;;;;4930455;29;20052;-90
2022/01/08 09:15:08;;;;;;;21.33;11.37;;;3.40;99.90;;;;;;4930288;29;20036;-90
2022/01/08 09:17:36;;;;;;;22.40;11.07;;;3.40;99.90;;;;;;4915669;29;20107;-90
2022/01/08 09:20:04;;;;;;;23.60;12.03;;;3.50;99.90;;;;;;4930303;29;20036;-90
2022/01/08 09:22:30;;;;;;;22.33;11.70;;;3.50;99.90;;;;;;4930296;29;20035;-90
2022/01/08 09:24:56;;;;;;;22.17;10.93;;;3.50;99.90;;;;;;4930211;29;20036;-90
2022/01/08 09:27:23;;;;;;;21.40;10.87;;;3.50;99.90;;;;;;4930451;29;20032;-90
2022/01/08 09:29:49;;;;;;;25.83;11.87;;;3.50;99.90;;;;;;4930324;29;20124;-91
2022/01/08 09:32:14;;;;;;;22.73;11.63;;;3.50;99.90;;;;;;4931210;29;20025;-90
2022/01/08 09:34:41;;;;;;;21.80;11.03;;;3.50;99.90;;;;;;4915479;29;20044;-90
2022/01/08 09:37:07;;;;;;;24.20;11.47;;;3.50;99.90;;;;;;4931071;29;20155;-91
2022/01/08 09:39:33;;;;;;;28.20;11.53;;;3.50;99.90;;;;;;4931032;29;20055;-91
2022/01/08 09:41:59;;;;;;;23.00;11.03;;;3.50;99.90;;;;;;4931225;29;20025;-90
2022/01/08 09:44:25;;;;;;;24.60;11.50;;;3.60;99.90;;;;;;4930863;29;20039;-89
2022/01/08 09:46:51;;;;;;;22.77;11.97;;;3.60;99.90;;;;;;4930242;29;20122;-90
2022/01/08 09:49:16;;;;;;;27.60;12.47;;;3.60;99.90;;;;;;4933574;29;20035;-90
2022/01/08 09:51:42;;;;;;;26.53;12.10;;;3.60;99.90;;;;;;4933408;29;20407;-90
2022/01/08 09:54:08;;;;;;;25.57;12.53;;;3.70;99.90;;;;;;4933623;29;20451;-90
2022/01/08 09:56:34;;;;;;;27.23;12.73;;;3.70;99.90;;;;;;4934844;29;20079;-91
2022/01/08 09:59:01;;;;;;;31.80;12.17;;;3.70;99.90;;;;;;4934116;29;20077;-90
2022/01/08 10:01:35;;;;;;;25.50;12.00;;;3.70;99.90;;;;;;4933470;29;20028;-91
2022/01/08 10:04:03;;;;;;;28.87;11.97;;;3.80;99.90;;;;;;4917369;29;20043;-90
2022/01/08 10:06:32;;;;;;;25.53;12.00;;;3.80;99.90;;;;;;4933102;29;20028;-90
2022/01/08 10:08:58;;;;;;;30.57;12.77;;;3.80;99.90;;;;;;4933344;29;20460;-89
2022/01/08 10:11:26;;;;;;;28.67;12.67;;;3.80;99.90;;;;;;4933088;29;20288;-90
2022/01/08 10:14:02;;;;;;;25.37;12.23;;;3.90;99.90;;;;;;4901404;29;20504;-89
2022/01/08 10:19:24;;;;;;;31.67;12.73;;;3.80;99.90;;;;;;4917394;29;20092;-91
2022/01/08 10:21:52;;;;;;;26.20;12.17;;;3.80;99.90;;;;;;4932858;29;20470;-89
2022/01/08 10:24:26;;;;;;;30.27;13.37;;;3.80;99.90;;;;;;4932885;29;20036;-90
2022/01/08 10:27:04;;;;;;;28.97;13.03;;;3.90;99.90;;;;;;4932858;29;20047;-89
2022/01/08 10:29:30;;;;;;;26.57;12.10;;;3.90;99.90;;;;;;4932928;29;20155;-91
2022/01/08 10:31:56;;;;;;;31.20;13.00;;;3.90;99.90;;;;;;4932635;29;20127;-90
2022/01/08 10:34:25;;;;;;;32.10;12.40;;;3.90;99.90;;;;;;4933839;29;20048;-90
2022/01/08 10:37:03;;;;;;;29.03;12.43;;;4.00;99.90;;;;;;4933870;29;20035;-90
2022/01/08 10:39:34;;;;;;;29.33;12.50;;;4.10;99.90;;;;;;4933064;29;20423;-90
2022/01/08 10:42:16;;;;;;;32.37;12.23;;;4.10;99.90;;;;;;4932569;29;20339;-90
2022/01/08 10:44:47;;;;;;;31.17;12.33;;;4.10;99.90;;;;;;4918409;29;20043;-91
2022/01/08 10:47:19;;;;;;;26.90;12.43;;;4.20;99.90;;;;;;4932831;29;20071;-90
2022/01/08 10:50:06;;;;;;;25.17;11.50;;;4.20;99.90;;;;;;4932692;29;20032;-90
2022/01/08 10:52:43;;;;;;;26.53;11.20;;;4.30;99.90;;;;;;4901254;29;20039;-90
2022/01/08 10:55:09;;;;;;;33.50;11.57;;;4.30;99.90;;;;;;4932671;29;20043;-90
2022/01/08 10:57:40;;;;;;;28.77;11.33;;;4.40;99.90;;;;;;4932767;29;20032;-90
2022/01/08 11:00:14;;;;;;;25.30;10.93;;;4.40;99.90;;;;;;4917628;29;20118;-90
2022/01/08 11:02:41;;;;;;;23.50;10.50;;;4.40;99.90;;;;;;4932560;29;20028;-90
2022/01/08 11:05:09;;;;;;;23.20;10.00;;;4.40;99.90;;;;;;4932601;29;20078;-90
2022/01/08 11:07:37;;;;;;;21.50;9.67;;;4.40;99.90;;;;;;4932727;29;20043;-89
2022/01/08 11:10:07;;;;;;;20.87;9.50;;;4.40;99.90;;;;;;4917908;29;20031;-89
2022/01/08 11:12:41;;;;;;;22.63;9.30;;;4.50;99.90;;;;;;4932320;29;20040;-90
2022/01/08 11:17:57;;;;;;;22.60;8.77;;;4.50;99.90;;;;;;4916205;29;20119;-90
2022/01/08 11:20:25;;;;;;;21.47;9.77;;;4.50;99.90;;;;;;4932208;29;20036;-90
2022/01/08 11:22:57;;;;;;;18.30;8.30;;;4.50;99.90;;;;;;4932139;29;20032;-90
2022/01/08 11:25:24;;;;;;;23.13;9.87;;;4.50;99.90;;;;;;4932293;29;20109;-90
2022/01/08 11:28:14;;;;;;;20.10;8.27;;;4.60;99.90;;;;;;4932570;29;20040;-89
2022/01/08 11:30:43;;;;;;;20.90;8.50;;;4.60;99.90;;;;;;4949100;29;20036;-91
2022/01/08 11:33:22;;;;;;;17.15;7.22;;;4.50;99.90;;;;;;4943793;29;20123;-91
2022/01/08 11:35:55;;;;;;;15.90;7.20;;;4.60;99.90;;;;;;4929102;29;20044;-90
2022/01/08 11:38:25;;;;;;;16.73;7.97;;;4.70;99.90;;;;;;4929062;29;20114;-90
2022/01/08 11:40:54;;;;;;;15.43;7.07;;;4.60;99.90;;;;;;4928271;29;20036;-91
2022/01/08 11:43:22;;;;;;;17.90;6.67;;;4.60;99.90;;;;;;4943350;29;20491;-90
2022/01/08 11:45:53;;;;;;;15.53;6.67;;;4.70;99.90;;;;;;4944313;29;20067;-91
2022/01/08 11:48:24;;;;;;;15.50;7.10;;;4.70;99.90;;;;;;4944592;29;20032;-90
2022/01/08 11:50:59;;;;;;;16.17;6.73;;;4.70;99.90;;;;;;4943551;29;20032;-90
2022/01/08 11:53:29;;;;;;;15.80;5.73;;;4.80;99.90;;;;;;4936928;29;20056;-91
2022/01/08 11:56:04;;;;;;;17.93;6.70;;;4.70;99.90;;;;;;4927996;29;20028;-91
2022/01/08 11:58:32;;;;;;;13.87;5.80;;;4.80;99.90;;;;;;4944764;29;20036;-91
2022/01/08 12:01:06;;;;;;;13.77;5.63;;;4.80;99.90;;;;;;4927516;29;20039;-90
2022/01/08 12:03:39;;;;;;;14.33;5.93;;;4.80;99.90;;;;;;4944896;29;20030;-90
2022/01/08 12:06:20;;;;;;;13.70;5.77;;;4.80;99.90;;;;;;4943948;29;20032;-89
2022/01/08 12:11:56;;;;;;;14.07;5.20;;;4.90;99.90;;;;;;4922528;29;20483;-91
2022/01/08 12:14:46;;;;;;;14.13;6.27;;;5.00;99.90;;;;;;4915554;29;20032;-89
2022/01/08 12:17:19;;;;;;;8.53;4.90;;;5.00;99.90;;;;;;4915419;29;20032;-89
2022/01/08 12:19:56;;;;;;;15.13;4.77;;;5.00;99.90;;;;;;4930802;29;20063;-88
2022/01/08 12:22:22;;;;;;;15.50;5.03;;;5.00;99.90;;;;;;4931166;29;20039;-88
2022/01/08 12:24:55;;;;;;;14.37;4.90;;;5.10;99.90;;;;;;4931100;29;20028;-89
2022/01/08 12:27:57;;;;;;;11.73;4.23;;;5.10;99.90;;;;;;4930939;29;20043;-88
2022/01/08 12:30:23;;;;;;;12.77;4.33;;;5.20;99.90;;;;;;4931055;29;20048;-88
2022/01/08 12:32:52;;;;;;;13.23;4.20;;;5.20;99.90;;;;;;4930999;29;20129;-89
2022/01/08 12:35:19;;;;;;;13.13;3.90;;;5.20;99.90;;;;;;4930781;29;20068;-89
2022/01/08 12:37:49;;;;;;;9.40;3.60;;;5.20;99.90;;;;;;4931114;29;20066;-89
2022/01/08 12:40:35;;;;;;;9.67;3.50;;;5.10;99.90;;;;;;4931057;29;20028;-88
2022/01/08 12:43:29;;;;;;;8.47;3.93;;;5.10;99.90;;;;;;4915288;29;20036;-89
2022/01/08 12:46:24;;;;;;;6.83;3.40;;;5.20;99.90;;;;;;4930757;29;20428;-89
2022/01/08 12:49:05;;;;;;;10.03;3.30;;;5.20;99.90;;;;;;4898059;29;20041;-89
2022/01/08 12:52:05;;;;;;;5.63;2.90;;;5.20;99.90;;;;;;4941733;29;20020;-89
2022/01/08 12:54:52;;;;;;;;;;;5.20;99.90;;;;;;4940801;29;20028;-89
2022/01/08 12:57:30;;;;;;;8.57;3.07;;;5.20;99.90;;;;;;4936697;29;20386;-91
2022/01/08 12:59:58;;;;;;;11.70;3.60;;;5.30;99.90;;;;;;4932853;29;20032;-90
2022/01/08 13:02:24;;;;;;;9.50;4.10;;;5.30;99.90;;;;;;4930715;29;20024;-90
2022/01/08 13:04:53;;;;;;;7.53;3.00;;;5.30;99.90;;;;;;4931306;29;20072;-91
2022/01/08 13:07:21;;;;;;;6.78;2.90;;;5.20;99.90;;;;;;4931793;29;20058;-91
2022/01/08 13:09:57;;;;;;;8.50;2.90;;;5.20;99.90;;;;;;4930267;29;20036;-92
2022/01/08 13:12:23;;;;;;;9.53;3.00;;;5.20;99.90;;;;;;4931993;29;20050;-91
2022/01/08 13:15:00;;;;;;;7.90;2.60;;;5.20;99.90;;;;;;4933772;29;20096;-92
2022/01/08 13:17:26;;;;;;;6.40;2.53;;;5.10;99.90;;;;;;4931193;29;20527;-91
2022/01/08 13:20:04;;;;;;;7.07;2.30;;;5.10;99.90;;;;;;4931350;29;20040;-90